sensor_id;sensor_type;location;lat;lon;timestamp;temperature;humidity
51867;DHT22;52862;52.504;13.480;2023-07-20T00:02:21;15.30;99.90
51867;DHT22;52862;52.504;13.480;2023-07-20T00:12:09;17.60;99.90
51867;DHT22;52862;52.504;13.480;2023-07-20T00:17:03;18.60;99.90
51867;DHT22;52862;52.504;13.480;2023-07-20T00:19:30;16.80;99.90
51867;DHT22;52862;52.504;13.480;2023-07-20T00:21:58;17.40;99.90
51867;DHT22;52862;52.504;13.480;2023-07-20T00:29:20;17.40;99.90
51867;DHT22;52862;52.504;13.480;2023-07-20T00:31:46;17.70;99.90
51867;DHT22;52862;52.504;13.480;2023-07-20T00:46:30;17.60;99.90
51867;DHT22;52862;52.504;13.480;2023-07-20T00:48:59;15.50;99.90
51867;DHT22;52862;52.504;13.480;2023-07-20T00:51:26;17.40;99.90
51867;DHT22;52862;52.504;13.480;2023-07-20T01:03:42;17.50;99.90
51867;DHT22;52862;52.504;13.480;2023-07-20T01:06:16;17.50;99.90
51867;DHT22;52862;52.504;13.480;2023-07-20T01:08:56;17.40;99.90
51867;DHT22;52862;52.504;13.480;2023-07-20T01:11:31;17.50;99.90
51867;DHT22;52862;52.504;13.480;2023-07-20T01:18:54;17.30;99.90
51867;DHT22;52862;52.504;13.480;2023-07-20T01:21:26;17.20;99.90
51867;DHT22;52862;52.504;13.480;2023-07-20T01:24:15;17.10;99.90
51867;DHT22;52862;52.504;13.480;2023-07-20T01:27:02;17.10;99.90
51867;DHT22;52862;52.504;13.480;2023-07-20T01:29:51;17.10;99.90
51867;DHT22;52862;52.504;13.480;2023-07-20T01:32:23;17.00;99.90
51867;DHT22;52862;52.504;13.480;2023-07-20T01:34:52;17.40;99.90
51867;DHT22;52862;52.504;13.480;2023-07-20T01:39:52;17.20;99.90
51867;DHT22;52862;52.504;13.480;2023-07-20T01:42:21;16.90;99.90
51867;DHT22;52862;52.504;13.480;2023-07-20T01:44:50;17.00;99.90
51867;DHT22;52862;52.504;13.480;2023-07-20T01:49:45;17.00;99.90
51867;DHT22;52862;52.504;13.480;2023-07-20T01:54:39;16.70;99.90
51867;DHT22;52862;52.504;13.480;2023-07-20T02:41:29;16.80;99.90
51867;DHT22;52862;52.504;13.480;2023-07-20T02:58:41;16.50;99.90
51867;DHT22;52862;52.504;13.480;2023-07-20T03:15:53;16.50;99.90
51867;DHT22;52862;52.504;13.480;2023-07-20T03:33:04;16.50;99.90
51867;DHT22;52862;52.504;13.480;2023-07-20T04:00:04;17.00;99.90
51867;DHT22;52862;52.504;13.480;2023-07-20T04:07:28;16.50;99.90
51867;DHT22;52862;52.504;13.480;2023-07-20T04:24:38;16.70;99.90
51867;DHT22;52862;52.504;13.480;2023-07-20T04:41:58;16.40;99.90
51867;DHT22;52862;52.504;13.480;2023-07-20T04:59:08;16.80;99.90
51867;DHT22;52862;52.504;13.480;2023-07-20T05:16:18;17.00;99.90
51867;DHT22;52862;52.504;13.480;2023-07-20T05:31:02;16.90;99.90
51867;DHT22;52862;52.504;13.480;2023-07-20T05:33:30;17.00;99.90
51867;DHT22;52862;52.504;13.480;2023-07-20T05:50:43;17.90;99.90
51867;DHT22;52862;52.504;13.480;2023-07-20T05:55:36;18.10;99.90
51867;DHT22;52862;52.504;13.480;2023-07-20T06:07:56;17.80;99.90
51867;DHT22;52862;52.504;13.480;2023-07-20T06:15:25;17.20;99.90
51867;DHT22;52862;52.504;13.480;2023-07-20T06:17:54;17.40;99.90
51867;DHT22;52862;52.504;13.480;2023-07-20T06:20:22;17.50;99.90
51867;DHT22;52862;52.504;13.480;2023-07-20T06:25:17;17.10;99.90
51867;DHT22;52862;52.504;13.480;2023-07-20T06:30:11;17.20;99.90
51867;DHT22;52862;52.504;13.480;2023-07-20T06:32:38;17.40;99.90
51867;DHT22;52862;52.504;13.480;2023-07-20T06:35:06;17.40;99.90
51867;DHT22;52862;52.504;13.480;2023-07-20T06:37:34;17.50;99.90
51867;DHT22;52862;52.504;13.480;2023-07-20T06:42:33;17.60;99.90
51867;DHT22;52862;52.504;13.480;2023-07-20T06:52:27;17.70;99.90
51867;DHT22;52862;52.504;13.480;2023-07-20T06:59:51;18.20;99.90
51867;DHT22;52862;52.504;13.480;2023-07-20T07:02:18;17.80;99.90
51867;DHT22;52862;52.504;13.480;2023-07-20T07:04:45;18.00;99.90
51867;DHT22;52862;52.504;13.480;2023-07-20T07:07:14;18.30;99.90
51867;DHT22;52862;52.504;13.480;2023-07-20T07:09:52;18.20;99.90
51867;DHT22;52862;52.504;13.480;2023-07-20T07:17:13;18.40;99.90
51867;DHT22;52862;52.504;13.480;2023-07-20T07:19:45;18.50;99.90
51867;DHT22;52862;52.504;13.480;2023-07-20T07:22:15;18.80;99.90
51867;DHT22;52862;52.504;13.480;2023-07-20T07:27:10;19.50;99.90
51867;DHT22;52862;52.504;13.480;2023-07-20T07:29:37;19.70;99.90
51867;DHT22;52862;52.504;13.480;2023-07-20T07:32:05;19.00;99.90
51867;DHT22;52862;52.504;13.480;2023-07-20T07:34:32;18.20;99.90
51867;DHT22;52862;52.504;13.480;2023-07-20T07:37:00;18.80;99.90
51867;DHT22;52862;52.504;13.480;2023-07-20T07:42:01;18.70;99.90
51867;DHT22;52862;52.504;13.480;2023-07-20T07:44:28;19.60;99.90
51867;DHT22;52862;52.504;13.480;2023-07-20T07:49:22;19.80;99.90
51867;DHT22;52862;52.504;13.480;2023-07-20T07:51:50;19.50;99.90
51867;DHT22;52862;52.504;13.480;2023-07-20T07:54:17;19.50;99.90
51867;DHT22;52862;52.504;13.480;2023-07-20T07:59:11;19.80;99.90
51867;DHT22;52862;52.504;13.480;2023-07-20T08:01:38;20.10;99.90
51867;DHT22;52862;52.504;13.480;2023-07-20T08:04:06;19.70;99.90
51867;DHT22;52862;52.504;13.480;2023-07-20T08:06:33;19.80;99.90
51867;DHT22;52862;52.504;13.480;2023-07-20T08:09:01;19.30;99.90
51867;DHT22;52862;52.504;13.480;2023-07-20T08:11:28;19.20;99.90
51867;DHT22;52862;52.504;13.480;2023-07-20T08:16:23;20.60;99.90
51867;DHT22;52862;52.504;13.480;2023-07-20T08:18:51;19.90;99.90
51867;DHT22;52862;52.504;13.480;2023-07-20T08:23:46;20.30;99.90
51867;DHT22;52862;52.504;13.480;2023-07-20T08:26:13;19.90;99.90
51867;DHT22;52862;52.504;13.480;2023-07-20T08:28:40;19.90;99.90
51867;DHT22;52862;52.504;13.480;2023-07-20T08:40:56;20.10;99.90
51867;DHT22;52862;52.504;13.480;2023-07-20T08:43:27;20.50;99.90
51867;DHT22;52862;52.504;13.480;2023-07-20T08:45:54;20.40;99.90
51867;DHT22;52862;52.504;13.480;2023-07-20T08:48:21;20.00;99.90
51867;DHT22;52862;52.504;13.480;2023-07-20T08:50:51;19.90;99.90
51867;DHT22;52862;52.504;13.480;2023-07-20T08:53:18;18.90;99.90
51867;DHT22;52862;52.504;13.480;2023-07-20T08:55:45;20.40;99.90
51867;DHT22;52862;52.504;13.480;2023-07-20T08:58:13;20.20;99.90
51867;DHT22;52862;52.504;13.480;2023-07-20T09:00:41;19.70;99.90
51867;DHT22;52862;52.504;13.480;2023-07-20T09:03:12;19.70;99.90
51867;DHT22;52862;52.504;13.480;2023-07-20T09:05:40;19.70;99.90
51867;DHT22;52862;52.504;13.480;2023-07-20T09:08:07;19.80;99.90
51867;DHT22;52862;52.504;13.480;2023-07-20T09:10:34;20.30;99.90
51867;DHT22;52862;52.504;13.480;2023-07-20T09:13:00;20.20;99.90
51867;DHT22;52862;52.504;13.480;2023-07-20T09:15:29;20.50;99.90
51867;DHT22;52862;52.504;13.480;2023-07-20T09:17:58;21.30;99.90
51867;DHT22;52862;52.504;13.480;2023-07-20T09:20:27;21.10;99.90
51867;DHT22;52862;52.504;13.480;2023-07-20T09:22:57;21.50;99.90
51867;DHT22;52862;52.504;13.480;2023-07-20T09:25:23;21.20;99.90
51867;DHT22;52862;52.504;13.480;2023-07-20T09:30:25;21.20;99.90
51867;DHT22;52862;52.504;13.480;2023-07-20T09:32:58;21.10;99.90
51867;DHT22;52862;52.504;13.480;2023-07-20T09:35:25;20.60;99.90
51867;DHT22;52862;52.504;13.480;2023-07-20T09:37:59;21.50;99.90
51867;DHT22;52862;52.504;13.480;2023-07-20T09:40:29;24.70;99.90
51867;DHT22;52862;52.504;13.480;2023-07-20T09:45:30;21.80;99.90
51867;DHT22;52862;52.504;13.480;2023-07-20T09:48:04;21.40;99.90
51867;DHT22;52862;52.504;13.480;2023-07-20T09:50:34;20.30;99.90
51867;DHT22;52862;52.504;13.480;2023-07-20T09:53:06;20.30;99.90
51867;DHT22;52862;52.504;13.480;2023-07-20T09:55:37;20.60;99.90
51867;DHT22;52862;52.504;13.480;2023-07-20T09:58:05;20.20;99.90
51867;DHT22;52862;52.504;13.480;2023-07-20T10:00:34;20.40;99.90
51867;DHT22;52862;52.504;13.480;2023-07-20T10:03:06;20.00;99.90
51867;DHT22;52862;52.504;13.480;2023-07-20T10:05:35;18.70;99.90
51867;DHT22;52862;52.504;13.480;2023-07-20T10:08:04;19.40;99.90
51867;DHT22;52862;52.504;13.480;2023-07-20T10:10:41;19.30;99.90
51867;DHT22;52862;52.504;13.480;2023-07-20T10:13:12;18.80;99.90
51867;DHT22;52862;52.504;13.480;2023-07-20T10:15:46;17.90;99.90
51867;DHT22;52862;52.504;13.480;2023-07-20T10:18:21;18.80;99.90
51867;DHT22;52862;52.504;13.480;2023-07-20T10:20:51;19.30;99.90
51867;DHT22;52862;52.504;13.480;2023-07-20T10:25:50;19.30;99.90
51867;DHT22;52862;52.504;13.480;2023-07-20T10:28:17;19.00;99.90
51867;DHT22;52862;52.504;13.480;2023-07-20T10:30:44;19.40;99.90
51867;DHT22;52862;52.504;13.480;2023-07-20T10:33:12;20.10;99.90
51867;DHT22;52862;52.504;13.480;2023-07-20T10:35:53;19.80;99.90
51867;DHT22;52862;52.504;13.480;2023-07-20T10:38:20;19.30;99.90
51867;DHT22;52862;52.504;13.480;2023-07-20T10:40:54;19.50;99.90
51867;DHT22;52862;52.504;13.480;2023-07-20T10:43:22;19.30;99.90
51867;DHT22;52862;52.504;13.480;2023-07-20T10:45:49;19.70;99.90
51867;DHT22;52862;52.504;13.480;2023-07-20T10:48:19;19.90;99.90
51867;DHT22;52862;52.504;13.480;2023-07-20T10:51:10;19.90;99.90
51867;DHT22;52862;52.504;13.480;2023-07-20T10:53:37;19.70;99.90
51867;DHT22;52862;52.504;13.480;2023-07-20T10:56:08;20.50;99.90
51867;DHT22;52862;52.504;13.480;2023-07-20T10:58:37;20.20;99.90
51867;DHT22;52862;52.504;13.480;2023-07-20T11:01:04;20.20;99.90
51867;DHT22;52862;52.504;13.480;2023-07-20T11:03:33;18.50;99.90
51867;DHT22;52862;52.504;13.480;2023-07-20T11:06:29;20.00;99.90
51867;DHT22;52862;52.504;13.480;2023-07-20T11:09:05;20.20;99.90
51867;DHT22;52862;52.504;13.480;2023-07-20T11:11:36;19.20;99.90
51867;DHT22;52862;52.504;13.480;2023-07-20T11:14:05;19.80;99.90
51867;DHT22;52862;52.504;13.480;2023-07-20T11:16:37;20.40;99.90
51867;DHT22;52862;52.504;13.480;2023-07-20T11:19:06;20.30;99.90
51867;DHT22;52862;52.504;13.480;2023-07-20T11:21:43;20.00;99.90
51867;DHT22;52862;52.504;13.480;2023-07-20T11:24:27;20.60;99.90
51867;DHT22;52862;52.504;13.480;2023-07-20T11:26:55;20.90;99.90
51867;DHT22;52862;52.504;13.480;2023-07-20T11:29:23;20.30;99.90
51867;DHT22;52862;52.504;13.480;2023-07-20T11:31:59;20.30;99.90
51867;DHT22;52862;52.504;13.480;2023-07-20T11:34:27;20.00;99.90
51867;DHT22;52862;52.504;13.480;2023-07-20T11:36:55;20.20;99.90
51867;DHT22;52862;52.504;13.480;2023-07-20T11:39:25;20.00;99.90
51867;DHT22;52862;52.504;13.480;2023-07-20T11:41:52;20.80;99.90
51867;DHT22;52862;52.504;13.480;2023-07-20T11:44:21;21.60;99.90
51867;DHT22;52862;52.504;13.480;2023-07-20T11:47:00;20.50;99.90
51867;DHT22;52862;52.504;13.480;2023-07-20T11:49:28;20.20;99.90
51867;DHT22;52862;52.504;13.480;2023-07-20T11:51:56;21.00;99.90
51867;DHT22;52862;52.504;13.480;2023-07-20T11:54:24;22.20;99.90
51867;DHT22;52862;52.504;13.480;2023-07-20T11:56:54;21.40;99.90
51867;DHT22;52862;52.504;13.480;2023-07-20T12:04:15;22.40;99.90
51867;DHT22;52862;52.504;13.480;2023-07-20T12:06:48;22.00;99.90
51867;DHT22;52862;52.504;13.480;2023-07-20T12:12:19;20.30;99.90
51867;DHT22;52862;52.504;13.480;2023-07-20T12:17:13;20.50;99.90
51867;DHT22;52862;52.504;13.480;2023-07-20T12:19:40;19.80;99.90
51867;DHT22;52862;52.504;13.480;2023-07-20T12:22:07;19.80;99.90
51867;DHT22;52862;52.504;13.480;2023-07-20T12:24:34;20.40;99.90
51867;DHT22;52862;52.504;13.480;2023-07-20T12:27:02;20.50;99.90
51867;DHT22;52862;52.504;13.480;2023-07-20T12:31:58;19.70;99.90
51867;DHT22;52862;52.504;13.480;2023-07-20T12:34:25;20.10;99.90
51867;DHT22;52862;52.504;13.480;2023-07-20T12:36:51;20.80;99.90
51867;DHT22;52862;52.504;13.480;2023-07-20T12:41:46;20.30;99.90
51867;DHT22;52862;52.504;13.480;2023-07-20T12:46:40;20.80;99.90
51867;DHT22;52862;52.504;13.480;2023-07-20T12:49:08;21.10;99.90
51867;DHT22;52862;52.504;13.480;2023-07-20T12:51:35;20.80;99.90
51867;DHT22;52862;52.504;13.480;2023-07-20T12:54:01;21.80;99.90
51867;DHT22;52862;52.504;13.480;2023-07-20T12:56:28;21.40;99.90
51867;DHT22;52862;52.504;13.480;2023-07-20T12:58:58;21.90;99.90
51867;DHT22;52862;52.504;13.480;2023-07-20T13:01:25;21.50;99.90
51867;DHT22;52862;52.504;13.480;2023-07-20T13:03:52;21.80;99.90
51867;DHT22;52862;52.504;13.480;2023-07-20T13:08:52;22.90;99.90
51867;DHT22;52862;52.504;13.480;2023-07-20T13:11:22;22.40;99.90
51867;DHT22;52862;52.504;13.480;2023-07-20T13:13:50;22.50;99.90
51867;DHT22;52862;52.504;13.480;2023-07-20T13:16:17;23.50;99.90
51867;DHT22;52862;52.504;13.480;2023-07-20T13:21:11;23.70;99.90
51867;DHT22;52862;52.504;13.480;2023-07-20T13:23:39;23.60;99.90
51867;DHT22;52862;52.504;13.480;2023-07-20T13:26:06;23.00;99.90
51867;DHT22;52862;52.504;13.480;2023-07-20T13:28:34;24.10;99.90
51867;DHT22;52862;52.504;13.480;2023-07-20T13:31:01;24.50;99.90
51867;DHT22;52862;52.504;13.480;2023-07-20T13:33:29;23.40;99.90
51867;DHT22;52862;52.504;13.480;2023-07-20T13:38:23;24.20;94.00
51867;DHT22;52862;52.504;13.480;2023-07-20T13:40:49;24.20;99.90
51867;DHT22;52862;52.504;13.480;2023-07-20T13:43:16;24.20;99.90
51867;DHT22;52862;52.504;13.480;2023-07-20T13:48:10;23.60;93.90
51867;DHT22;52862;52.504;13.480;2023-07-20T13:50:38;24.20;99.90
51867;DHT22;52862;52.504;13.480;2023-07-20T13:53:07;24.00;99.70
51867;DHT22;52862;52.504;13.480;2023-07-20T13:55:37;24.10;99.10
51867;DHT22;52862;52.504;13.480;2023-07-20T13:58:07;23.00;89.60
51867;DHT22;52862;52.504;13.480;2023-07-20T14:03:05;24.90;89.50
51867;DHT22;52862;52.504;13.480;2023-07-20T14:05:34;25.40;92.10
51867;DHT22;52862;52.504;13.480;2023-07-20T14:08:05;25.50;95.80
51867;DHT22;52862;52.504;13.480;2023-07-20T14:10:33;25.70;89.00
51867;DHT22;52862;52.504;13.480;2023-07-20T14:13:00;25.40;96.20
51867;DHT22;52862;52.504;13.480;2023-07-20T14:17:55;27.40;92.80
51867;DHT22;52862;52.504;13.480;2023-07-20T14:20:24;28.80;76.60
51867;DHT22;52862;52.504;13.480;2023-07-20T14:22:51;30.40;90.80
51867;DHT22;52862;52.504;13.480;2023-07-20T14:25:19;31.50;86.20
51867;DHT22;52862;52.504;13.480;2023-07-20T14:27:46;31.30;88.50
51867;DHT22;52862;52.504;13.480;2023-07-20T14:30:14;32.80;84.60
51867;DHT22;52862;52.504;13.480;2023-07-20T14:32:41;30.80;83.80
51867;DHT22;52862;52.504;13.480;2023-07-20T14:35:08;30.90;83.50
51867;DHT22;52862;52.504;13.480;2023-07-20T14:40:05;32.00;79.50
51867;DHT22;52862;52.504;13.480;2023-07-20T14:42:36;31.80;81.60
51867;DHT22;52862;52.504;13.480;2023-07-20T14:45:05;32.00;79.40
51867;DHT22;52862;52.504;13.480;2023-07-20T14:47:33;33.10;76.60
51867;DHT22;52862;52.504;13.480;2023-07-20T14:52:32;32.40;73.70
51867;DHT22;52862;52.504;13.480;2023-07-20T14:59:54;33.00;74.50
51867;DHT22;52862;52.504;13.480;2023-07-20T15:04:50;32.70;73.20
51867;DHT22;52862;52.504;13.480;2023-07-20T15:07:19;32.40;73.70
51867;DHT22;52862;52.504;13.480;2023-07-20T15:15:02;27.60;61.80
51867;DHT22;52862;52.504;13.480;2023-07-20T15:17:30;26.60;65.00
51867;DHT22;52862;52.504;13.480;2023-07-20T15:19:58;26.70;86.90
51867;DHT22;52862;52.504;13.480;2023-07-20T15:27:21;30.30;79.80
51867;DHT22;52862;52.504;13.480;2023-07-20T15:29:48;27.40;71.00
51867;DHT22;52862;52.504;13.480;2023-07-20T15:32:17;28.30;84.40
51867;DHT22;52862;52.504;13.480;2023-07-20T15:34:45;27.60;73.70
51867;DHT22;52862;52.504;13.480;2023-07-20T15:37:14;27.70;64.10
51867;DHT22;52862;52.504;13.480;2023-07-20T15:39:42;29.60;81.10
51867;DHT22;52862;52.504;13.480;2023-07-20T15:47:05;26.00;67.90
51867;DHT22;52862;52.504;13.480;2023-07-20T15:49:36;24.80;90.40
51867;DHT22;52862;52.504;13.480;2023-07-20T15:52:04;25.40;69.10
51867;DHT22;52862;52.504;13.480;2023-07-20T15:54:35;25.20;84.70
51867;DHT22;52862;52.504;13.480;2023-07-20T15:59:30;25.10;68.50
51867;DHT22;52862;52.504;13.480;2023-07-20T16:04:25;23.50;74.90
51867;DHT22;52862;52.504;13.480;2023-07-20T16:06:52;23.00;75.10
51867;DHT22;52862;52.504;13.480;2023-07-20T16:09:20;22.90;92.90
51867;DHT22;52862;52.504;13.480;2023-07-20T16:11:48;22.70;84.60
51867;DHT22;52862;52.504;13.480;2023-07-20T16:14:16;22.30;92.80
51867;DHT22;52862;52.504;13.480;2023-07-20T16:16:44;22.10;93.60
51867;DHT22;52862;52.504;13.480;2023-07-20T16:19:12;22.90;86.10
51867;DHT22;52862;52.504;13.480;2023-07-20T16:21:39;23.00;81.00
51867;DHT22;52862;52.504;13.480;2023-07-20T16:24:07;22.60;95.30
51867;DHT22;52862;52.504;13.480;2023-07-20T16:26:36;22.00;81.90
51867;DHT22;52862;52.504;13.480;2023-07-20T16:29:03;22.30;93.20
51867;DHT22;52862;52.504;13.480;2023-07-20T16:31:33;24.00;94.20
51867;DHT22;52862;52.504;13.480;2023-07-20T16:34:01;24.20;76.60
51867;DHT22;52862;52.504;13.480;2023-07-20T16:36:31;23.80;92.70
51867;DHT22;52862;52.504;13.480;2023-07-20T16:39:19;24.20;93.30
51867;DHT22;52862;52.504;13.480;2023-07-20T16:41:50;23.40;87.60
51867;DHT22;52862;52.504;13.480;2023-07-20T16:44:21;22.90;93.00
51867;DHT22;52862;52.504;13.480;2023-07-20T16:46:48;22.80;94.40
51867;DHT22;52862;52.504;13.480;2023-07-20T16:49:19;22.50;95.10
51867;DHT22;52862;52.504;13.480;2023-07-20T16:51:47;22.40;95.10
51867;DHT22;52862;52.504;13.480;2023-07-20T16:56:44;22.70;95.70
51867;DHT22;52862;52.504;13.480;2023-07-20T16:59:13;21.80;95.90
51867;DHT22;52862;52.504;13.480;2023-07-20T17:04:08;22.20;96.00
51867;DHT22;52862;52.504;13.480;2023-07-20T17:09:04;22.90;97.00
51867;DHT22;52862;52.504;13.480;2023-07-20T17:11:31;22.80;96.10
51867;DHT22;52862;52.504;13.480;2023-07-20T17:13:59;22.90;96.70
51867;DHT22;52862;52.504;13.480;2023-07-20T17:16:28;22.60;96.90
51867;DHT22;52862;52.504;13.480;2023-07-20T17:18:56;22.00;97.10
51867;DHT22;52862;52.504;13.480;2023-07-20T17:23:53;21.80;94.10
51867;DHT22;52862;52.504;13.480;2023-07-20T17:26:25;22.60;97.30
51867;DHT22;52862;52.504;13.480;2023-07-20T17:33:55;21.80;86.50
51867;DHT22;52862;52.504;13.480;2023-07-20T17:36:23;21.40;98.20
51867;DHT22;52862;52.504;13.480;2023-07-20T17:38:53;21.40;98.50
51867;DHT22;52862;52.504;13.480;2023-07-20T17:41:20;21.30;96.80
51867;DHT22;52862;52.504;13.480;2023-07-20T17:43:48;20.90;98.50
51867;DHT22;52862;52.504;13.480;2023-07-20T17:51:15;20.70;95.40
51867;DHT22;52862;52.504;13.480;2023-07-20T17:56:11;22.90;90.40
51867;DHT22;52862;52.504;13.480;2023-07-20T17:58:38;21.20;99.20
51867;DHT22;52862;52.504;13.480;2023-07-20T18:01:07;20.80;90.30
51867;DHT22;52862;52.504;13.480;2023-07-20T18:06:05;21.20;98.40
51867;DHT22;52862;52.504;13.480;2023-07-20T18:08:33;19.90;99.00
51867;DHT22;52862;52.504;13.480;2023-07-20T18:11:05;20.80;91.00
51867;DHT22;52862;52.504;13.480;2023-07-20T18:13:33;21.10;99.20
51867;DHT22;52862;52.504;13.480;2023-07-20T18:18:29;20.80;99.60
51867;DHT22;52862;52.504;13.480;2023-07-20T18:20:56;20.60;99.80
51867;DHT22;52862;52.504;13.480;2023-07-20T18:25:52;20.80;99.90
51867;DHT22;52862;52.504;13.480;2023-07-20T18:33:16;20.00;99.90
51867;DHT22;52862;52.504;13.480;2023-07-20T18:35:44;20.10;99.90
51867;DHT22;52862;52.504;13.480;2023-07-20T18:38:11;20.10;99.90
51867;DHT22;52862;52.504;13.480;2023-07-20T18:43:08;19.60;99.90
51867;DHT22;52862;52.504;13.480;2023-07-20T18:48:02;19.90;99.90
51867;DHT22;52862;52.504;13.480;2023-07-20T18:50:29;19.60;95.30
51867;DHT22;52862;52.504;13.480;2023-07-20T18:52:57;20.20;99.90
51867;DHT22;52862;52.504;13.480;2023-07-20T18:57:54;19.90;95.00
51867;DHT22;52862;52.504;13.480;2023-07-20T19:00:21;20.00;99.90
51867;DHT22;52862;52.504;13.480;2023-07-20T19:02:48;19.60;99.90
51867;DHT22;52862;52.504;13.480;2023-07-20T19:05:16;19.30;99.90
51867;DHT22;52862;52.504;13.480;2023-07-20T19:07:43;20.00;99.90
51867;DHT22;52862;52.504;13.480;2023-07-20T19:12:38;19.40;98.90
51867;DHT22;52862;52.504;13.480;2023-07-20T19:15:06;19.60;94.30
51867;DHT22;52862;52.504;13.480;2023-07-20T19:17:35;19.00;99.90
51867;DHT22;52862;52.504;13.480;2023-07-20T19:20:02;19.20;99.90
51867;DHT22;52862;52.504;13.480;2023-07-20T19:27:23;19.30;99.90
51867;DHT22;52862;52.504;13.480;2023-07-20T19:29:50;19.30;99.90
51867;DHT22;52862;52.504;13.480;2023-07-20T19:32:17;19.60;99.90
51867;DHT22;52862;52.504;13.480;2023-07-20T19:34:44;19.50;96.20
51867;DHT22;52862;52.504;13.480;2023-07-20T19:37:11;18.90;99.90
51867;DHT22;52862;52.504;13.480;2023-07-20T19:39:37;19.10;99.90
51867;DHT22;52862;52.504;13.480;2023-07-20T19:42:04;19.20;99.90
51867;DHT22;52862;52.504;13.480;2023-07-20T19:44:32;19.40;99.90
51867;DHT22;52862;52.504;13.480;2023-07-20T19:49:26;19.00;99.90
51867;DHT22;52862;52.504;13.480;2023-07-20T19:51:55;19.00;99.90
51867;DHT22;52862;52.504;13.480;2023-07-20T19:59:20;18.60;99.90
51867;DHT22;52862;52.504;13.480;2023-07-20T20:04:13;19.10;99.90
51867;DHT22;52862;52.504;13.480;2023-07-20T20:06:47;19.10;98.90
51867;DHT22;52862;52.504;13.480;2023-07-20T20:09:15;19.30;99.50
51867;DHT22;52862;52.504;13.480;2023-07-20T20:11:43;18.50;98.70
51867;DHT22;52862;52.504;13.480;2023-07-20T20:14:09;19.60;99.90
51867;DHT22;52862;52.504;13.480;2023-07-20T20:16:37;19.00;97.80
51867;DHT22;52862;52.504;13.480;2023-07-20T20:19:04;19.10;99.90
51867;DHT22;52862;52.504;13.480;2023-07-20T20:24:01;18.90;99.90
51867;DHT22;52862;52.504;13.480;2023-07-20T20:26:29;19.30;99.90
51867;DHT22;52862;52.504;13.480;2023-07-20T20:33:49;19.40;99.90
51867;DHT22;52862;52.504;13.480;2023-07-20T20:41:10;18.70;99.90
51867;DHT22;52862;52.504;13.480;2023-07-20T20:43:38;18.30;99.00
51867;DHT22;52862;52.504;13.480;2023-07-20T20:46:06;19.00;99.90
51867;DHT22;52862;52.504;13.480;2023-07-20T20:48:35;16.90;98.90
51867;DHT22;52862;52.504;13.480;2023-07-20T20:51:03;18.90;99.90
51867;DHT22;52862;52.504;13.480;2023-07-20T20:58:24;18.60;99.90
51867;DHT22;52862;52.504;13.480;2023-07-20T21:00:52;18.90;99.90
51867;DHT22;52862;52.504;13.480;2023-07-20T21:05:46;21.00;99.90
51867;DHT22;52862;52.504;13.480;2023-07-20T21:08:12;17.10;99.90
51867;DHT22;52862;52.504;13.480;2023-07-20T21:10:44;18.50;99.90
51867;DHT22;52862;52.504;13.480;2023-07-20T21:13:11;17.70;99.90
51867;DHT22;52862;52.504;13.480;2023-07-20T21:18:07;18.40;99.90
51867;DHT22;52862;52.504;13.480;2023-07-20T21:23:01;18.20;99.90
51867;DHT22;52862;52.504;13.480;2023-07-20T21:32:53;18.30;99.90
51867;DHT22;52862;52.504;13.480;2023-07-20T21:35:20;18.10;99.90
51867;DHT22;52862;52.504;13.480;2023-07-20T21:37:47;18.40;99.90
51867;DHT22;52862;52.504;13.480;2023-07-20T21:40:14;18.50;99.90
51867;DHT22;52862;52.504;13.480;2023-07-20T21:42:40;17.80;99.90
51867;DHT22;52862;52.504;13.480;2023-07-20T21:45:08;18.40;99.90
51867;DHT22;52862;52.504;13.480;2023-07-20T21:47:35;18.40;99.90
51867;DHT22;52862;52.504;13.480;2023-07-20T21:52:30;18.10;99.90
51867;DHT22;52862;52.504;13.480;2023-07-20T21:57:24;18.10;99.90
51867;DHT22;52862;52.504;13.480;2023-07-20T21:59:50;18.50;99.90
51867;DHT22;52862;52.504;13.480;2023-07-20T22:14:37;18.60;99.90
51867;DHT22;52862;52.504;13.480;2023-07-20T22:17:05;17.80;99.90
51867;DHT22;52862;52.504;13.480;2023-07-20T22:19:33;18.40;99.90
51867;DHT22;52862;52.504;13.480;2023-07-20T22:26:54;18.10;99.90
51867;DHT22;52862;52.504;13.480;2023-07-20T22:31:50;17.80;99.90
51867;DHT22;52862;52.504;13.480;2023-07-20T22:34:17;20.30;99.90
51867;DHT22;52862;52.504;13.480;2023-07-20T22:36:43;17.90;99.90
51867;DHT22;52862;52.504;13.480;2023-07-20T22:41:37;18.30;99.90
51867;DHT22;52862;52.504;13.480;2023-07-20T22:44:04;17.80;99.90
51867;DHT22;52862;52.504;13.480;2023-07-20T23:01:15;17.60;99.90
51867;DHT22;52862;52.504;13.480;2023-07-20T23:03:41;17.90;99.90
51867;DHT22;52862;52.504;13.480;2023-07-20T23:06:08;17.00;99.90
51867;DHT22;52862;52.504;13.480;2023-07-20T23:13:29;17.30;99.90
51867;DHT22;52862;52.504;13.480;2023-07-20T23:18:24;18.50;99.90
51867;DHT22;52862;52.504;13.480;2023-07-20T23:25:51;17.30;99.90
51867;DHT22;52862;52.504;13.480;2023-07-20T23:28:18;17.50;99.90
51867;DHT22;52862;52.504;13.480;2023-07-20T23:30:45;17.70;99.90
51867;DHT22;52862;52.504;13.480;2023-07-20T23:35:41;17.40;99.90
51867;DHT22;52862;52.504;13.480;2023-07-20T23:52:51;17.20;99.90
51867;DHT22;52862;52.504;13.480;2023-07-20T23:55:19;17.20;99.90
